sensor_id;sensor_type;location;lat;lon;timestamp;pressure;altitude;pressure_sealevel;temperature;humidity
74893;BME280;63446;56.272;43.922;2023-01-08T00:00:45;101619.34;;;-17.77;58.06
74893;BME280;63446;56.272;43.922;2023-01-08T00:03:12;101603.94;;;-17.70;58.03
74893;BME280;63446;56.272;43.922;2023-01-08T00:05:37;101606.22;;;-17.64;58.08
74893;BME280;63446;56.272;43.922;2023-01-08T00:08:03;101611.94;;;-17.59;57.98
74893;BME280;63446;56.272;43.922;2023-01-08T00:10:30;101612.81;;;-17.60;57.93
74893;BME280;63446;56.272;43.922;2023-01-08T00:12:56;101614.28;;;-17.55;57.75
74893;BME280;63446;56.272;43.922;2023-01-08T00:15:22;101616.09;;;-17.58;57.80
74893;BME280;63446;56.272;43.922;2023-01-08T00:17:47;101611.94;;;-17.59;57.76
74893;BME280;63446;56.272;43.922;2023-01-08T00:20:13;101614.69;;;-17.65;57.87
74893;BME280;63446;56.272;43.922;2023-01-08T00:22:39;101616.50;;;-17.69;57.93
74893;BME280;63446;56.272;43.922;2023-01-08T00:25:05;101626.78;;;-17.74;57.83
74893;BME280;63446;56.272;43.922;2023-01-08T00:27:31;101624.56;;;-17.81;57.84
74893;BME280;63446;56.272;43.922;2023-01-08T00:29:58;101626.38;;;-17.85;57.76
74893;BME280;63446;56.272;43.922;2023-01-08T00:32:23;101624.00;;;-17.89;57.92
74893;BME280;63446;56.272;43.922;2023-01-08T00:34:49;101627.47;;;-17.92;57.96
74893;BME280;63446;56.272;43.922;2023-01-08T00:37:15;101632.56;;;-17.93;58.03
74893;BME280;63446;56.272;43.922;2023-01-08T00:39:43;101622.53;;;-17.95;57.98
74893;BME280;63446;56.272;43.922;2023-01-08T00:42:10;101619.19;;;-17.95;58.20
74893;BME280;63446;56.272;43.922;2023-01-08T00:44:36;101619.25;;;-17.97;58.07
74893;BME280;63446;56.272;43.922;2023-01-08T00:47:02;101621.75;;;-17.97;57.99
74893;BME280;63446;56.272;43.922;2023-01-08T00:49:28;101617.63;;;-18.00;58.05
74893;BME280;63446;56.272;43.922;2023-01-08T00:51:54;101613.53;;;-18.02;58.00
74893;BME280;63446;56.272;43.922;2023-01-08T00:54:20;101619.56;;;-18.06;57.99
74893;BME280;63446;56.272;43.922;2023-01-08T00:56:46;101628.19;;;-18.12;58.01
74893;BME280;63446;56.272;43.922;2023-01-08T00:59:12;101624.03;;;-18.14;58.08
74893;BME280;63446;56.272;43.922;2023-01-08T01:01:38;101617.47;;;-18.18;58.00
74893;BME280;63446;56.272;43.922;2023-01-08T01:04:04;101622.63;;;-18.21;58.10
74893;BME280;63446;56.272;43.922;2023-01-08T01:06:30;101624.44;;;-18.25;58.19
74893;BME280;63446;56.272;43.922;2023-01-08T01:08:56;101614.38;;;-18.27;58.18
74893;BME280;63446;56.272;43.922;2023-01-08T01:11:24;101611.94;;;-18.28;58.26
74893;BME280;63446;56.272;43.922;2023-01-08T01:13:50;101614.38;;;-18.27;58.25
74893;BME280;63446;56.272;43.922;2023-01-08T01:16:16;101611.84;;;-18.25;58.29
74893;BME280;63446;56.272;43.922;2023-01-08T01:18:43;101615.19;;;-18.25;58.33
74893;BME280;63446;56.272;43.922;2023-01-08T01:21:21;101617.47;;;-18.18;58.35
74893;BME280;63446;56.272;43.922;2023-01-08T01:23:47;101629.09;;;-18.14;58.40
74893;BME280;63446;56.272;43.922;2023-01-08T01:26:15;101620.50;;;-18.09;58.44
74893;BME280;63446;56.272;43.922;2023-01-08T01:28:41;101615.28;;;-18.04;58.32
74893;BME280;63446;56.272;43.922;2023-01-08T01:31:08;101619.34;;;-18.00;58.30
74893;BME280;63446;56.272;43.922;2023-01-08T01:33:35;101625.19;;;-17.98;58.31
74893;BME280;63446;56.272;43.922;2023-01-08T01:36:01;101618.31;;;-17.94;58.26
74893;BME280;63446;56.272;43.922;2023-01-08T01:38:28;101624.94;;;-17.92;58.39
74893;BME280;63446;56.272;43.922;2023-01-08T01:40:54;101624.00;;;-17.89;58.37
74893;BME280;63446;56.272;43.922;2023-01-08T01:43:40;101621.41;;;-17.88;58.24
74893;BME280;63446;56.272;43.922;2023-01-08T01:48:44;101633.19;;;-17.87;58.41
74893;BME280;63446;56.272;43.922;2023-01-08T01:51:11;101624.78;;;-17.87;58.25
74893;BME280;63446;56.272;43.922;2023-01-08T01:53:37;101636.47;;;-17.85;58.27
74893;BME280;63446;56.272;43.922;2023-01-08T01:56:06;101639.88;;;-17.86;58.36
74893;BME280;63446;56.272;43.922;2023-01-08T01:58:32;101635.72;;;-17.87;58.40
74893;BME280;63446;56.272;43.922;2023-01-08T02:01:03;101639.97;;;-17.89;58.35
74893;BME280;63446;56.272;43.922;2023-01-08T02:03:32;101638.34;;;-17.90;58.42
74893;BME280;63446;56.272;43.922;2023-01-08T02:08:37;101639.19;;;-17.91;58.52
74893;BME280;63446;56.272;43.922;2023-01-08T02:11:12;101642.50;;;-17.89;58.43
74893;BME280;63446;56.272;43.922;2023-01-08T02:13:49;101646.66;;;-17.88;58.51
74893;BME280;63446;56.272;43.922;2023-01-08T02:16:51;101650.09;;;-17.89;58.49
74893;BME280;63446;56.272;43.922;2023-01-08T02:25:09;101644.75;;;-17.81;58.55
74893;BME280;63446;56.272;43.922;2023-01-08T02:27:39;101647.22;;;-17.80;58.67
74893;BME280;63446;56.272;43.922;2023-01-08T02:30:07;101655.56;;;-17.78;58.65
74893;BME280;63446;56.272;43.922;2023-01-08T02:32:37;101653.81;;;-17.76;58.56
74893;BME280;63446;56.272;43.922;2023-01-08T02:35:05;101652.03;;;-17.74;58.66
74893;BME280;63446;56.272;43.922;2023-01-08T02:37:31;101651.03;;;-17.69;58.69
74893;BME280;63446;56.272;43.922;2023-01-08T02:40:13;101653.34;;;-17.63;58.68
74893;BME280;63446;56.272;43.922;2023-01-08T02:43:01;101649.75;;;-17.58;58.83
74893;BME280;63446;56.272;43.922;2023-01-08T02:45:43;101651.34;;;-17.55;58.69
74893;BME280;63446;56.272;43.922;2023-01-08T02:53:42;101652.66;;;-17.45;58.76
74893;BME280;63446;56.272;43.922;2023-01-08T02:56:16;101650.06;;;-17.43;58.79
74893;BME280;63446;56.272;43.922;2023-01-08T02:58:44;101653.31;;;-17.40;58.77
74893;BME280;63446;56.272;43.922;2023-01-08T03:01:13;101645.50;;;-17.34;58.85
74893;BME280;63446;56.272;43.922;2023-01-08T03:03:43;101648.63;;;-17.27;58.87
74893;BME280;63446;56.272;43.922;2023-01-08T03:06:13;101646.72;;;-17.22;58.98
74893;BME280;63446;56.272;43.922;2023-01-08T03:08:43;101643.25;;;-17.19;58.85
74893;BME280;63446;56.272;43.922;2023-01-08T03:11:13;101650.66;;;-17.15;58.86
74893;BME280;63446;56.272;43.922;2023-01-08T03:13:49;101648.91;;;-17.13;58.83
74893;BME280;63446;56.272;43.922;2023-01-08T03:16:24;101649.63;;;-17.09;58.94
74893;BME280;63446;56.272;43.922;2023-01-08T03:18:56;101650.38;;;-17.07;58.94
74893;BME280;63446;56.272;43.922;2023-01-08T03:21:24;101651.16;;;-17.05;58.94
74893;BME280;63446;56.272;43.922;2023-01-08T03:23:50;101644.28;;;-17.02;58.94
74893;BME280;63446;56.272;43.922;2023-01-08T03:26:21;101654.28;;;-16.98;59.01
74893;BME280;63446;56.272;43.922;2023-01-08T03:28:52;101654.13;;;-16.95;59.11
74893;BME280;63446;56.272;43.922;2023-01-08T03:31:22;101653.25;;;-16.94;59.07
74893;BME280;63446;56.272;43.922;2023-01-08T03:33:49;101656.34;;;-16.88;59.06
74893;BME280;63446;56.272;43.922;2023-01-08T03:36:23;101661.28;;;-16.85;59.11
74893;BME280;63446;56.272;43.922;2023-01-08T03:38:58;101657.75;;;-16.81;59.00
74893;BME280;63446;56.272;43.922;2023-01-08T03:41:27;101659.22;;;-16.75;59.13
74893;BME280;63446;56.272;43.922;2023-01-08T03:43:55;101661.59;;;-16.72;59.14
74893;BME280;63446;56.272;43.922;2023-01-08T03:46:30;101658.91;;;-16.67;59.11
74893;BME280;63446;56.272;43.922;2023-01-08T03:48:59;101663.00;;;-16.65;59.13
74893;BME280;63446;56.272;43.922;2023-01-08T03:51:25;101663.66;;;-16.60;59.15
74893;BME280;63446;56.272;43.922;2023-01-08T03:53:53;101660.97;;;-16.57;59.13
74893;BME280;63446;56.272;43.922;2023-01-08T03:56:21;101656.59;;;-16.53;59.26
74893;BME280;63446;56.272;43.922;2023-01-08T03:58:46;101659.00;;;-16.50;59.24
74893;BME280;63446;56.272;43.922;2023-01-08T04:01:12;101663.84;;;-16.44;59.21
74893;BME280;63446;56.272;43.922;2023-01-08T04:03:39;101662.00;;;-16.40;59.30
74893;BME280;63446;56.272;43.922;2023-01-08T04:06:05;101663.53;;;-16.36;59.20
74893;BME280;63446;56.272;43.922;2023-01-08T04:08:31;101660.88;;;-16.33;59.39
74893;BME280;63446;56.272;43.922;2023-01-08T04:10:57;101664.06;;;-16.30;59.45
74893;BME280;63446;56.272;43.922;2023-01-08T04:13:23;101674.03;;;-16.25;59.41
74893;BME280;63446;56.272;43.922;2023-01-08T04:15:49;101663.06;;;-16.26;59.39
74893;BME280;63446;56.272;43.922;2023-01-08T04:18:16;101667.94;;;-16.21;59.40
74893;BME280;63446;56.272;43.922;2023-01-08T04:20:46;101675.25;;;-16.15;59.41
74893;BME280;63446;56.272;43.922;2023-01-08T04:23:13;101676.72;;;-16.09;59.54
74893;BME280;63446;56.272;43.922;2023-01-08T04:25:39;101666.59;;;-16.09;59.55
74893;BME280;63446;56.272;43.922;2023-01-08T04:28:08;101674.00;;;-16.05;59.47
74893;BME280;63446;56.272;43.922;2023-01-08T04:30:33;101669.63;;;-16.01;59.47
74893;BME280;63446;56.272;43.922;2023-01-08T04:33:00;101667.84;;;-15.99;59.53
74893;BME280;63446;56.272;43.922;2023-01-08T04:35:25;101668.59;;;-15.97;59.58
74893;BME280;63446;56.272;43.922;2023-01-08T04:37:53;101671.72;;;-15.90;59.60
74893;BME280;63446;56.272;43.922;2023-01-08T04:40:18;101671.63;;;-15.89;59.60
74893;BME280;63446;56.272;43.922;2023-01-08T04:42:44;101667.34;;;-15.87;59.59
74893;BME280;63446;56.272;43.922;2023-01-08T04:45:10;101671.38;;;-15.83;59.58
74893;BME280;63446;56.272;43.922;2023-01-08T04:47:36;101672.13;;;-15.81;59.64
74893;BME280;63446;56.272;43.922;2023-01-08T04:50:02;101670.28;;;-15.77;59.57
74893;BME280;63446;56.272;43.922;2023-01-08T04:52:29;101674.41;;;-15.74;59.62
74893;BME280;63446;56.272;43.922;2023-01-08T04:54:54;101670.06;;;-15.72;59.76
74893;BME280;63446;56.272;43.922;2023-01-08T04:57:20;101674.19;;;-15.70;59.66
74893;BME280;63446;56.272;43.922;2023-01-08T04:59:46;101673.25;;;-15.67;59.80
74893;BME280;63446;56.272;43.922;2023-01-08T05:02:12;101684.03;;;-15.64;59.82
74893;BME280;63446;56.272;43.922;2023-01-08T05:04:38;101691.56;;;-15.62;59.74
74893;BME280;63446;56.272;43.922;2023-01-08T05:07:04;101689.75;;;-15.60;59.72
74893;BME280;63446;56.272;43.922;2023-01-08T05:09:30;101691.44;;;-15.59;59.71
74893;BME280;63446;56.272;43.922;2023-01-08T05:11:55;101697.19;;;-15.56;59.71
74893;BME280;63446;56.272;43.922;2023-01-08T05:14:21;101702.09;;;-15.53;59.86
74893;BME280;63446;56.272;43.922;2023-01-08T05:16:48;101706.22;;;-15.50;59.83
74893;BME280;63446;56.272;43.922;2023-01-08T05:19:14;101712.06;;;-15.48;59.90
74893;BME280;63446;56.272;43.922;2023-01-08T05:21:41;101714.44;;;-15.45;59.84
74893;BME280;63446;56.272;43.922;2023-01-08T05:24:07;101719.38;;;-15.42;59.96
74893;BME280;63446;56.272;43.922;2023-01-08T05:26:36;101721.03;;;-15.41;59.90
74893;BME280;63446;56.272;43.922;2023-01-08T05:29:02;101732.72;;;-15.38;59.85
74893;BME280;63446;56.272;43.922;2023-01-08T05:31:28;101735.94;;;-15.35;59.86
74893;BME280;63446;56.272;43.922;2023-01-08T05:33:57;101740.13;;;-15.34;59.95
74893;BME280;63446;56.272;43.922;2023-01-08T05:36:22;101740.91;;;-15.32;59.85
74893;BME280;63446;56.272;43.922;2023-01-08T05:38:52;101722.59;;;-15.38;59.86
74893;BME280;63446;56.272;43.922;2023-01-08T05:41:19;101744.84;;;-15.26;59.99
74893;BME280;63446;56.272;43.922;2023-01-08T05:43:44;101743.22;;;-15.27;59.94
74893;BME280;63446;56.272;43.922;2023-01-08T05:46:11;101749.91;;;-15.26;59.87
74893;BME280;63446;56.272;43.922;2023-01-08T05:48:36;101741.44;;;-15.25;59.90
74893;BME280;63446;56.272;43.922;2023-01-08T05:51:04;101753.16;;;-15.22;59.96
74893;BME280;63446;56.272;43.922;2023-01-08T05:53:32;101753.09;;;-15.21;59.99
74893;BME280;63446;56.272;43.922;2023-01-08T05:56:02;101752.19;;;-15.20;60.01
74893;BME280;63446;56.272;43.922;2023-01-08T05:58:29;101757.06;;;-15.15;60.11
74893;BME280;63446;56.272;43.922;2023-01-08T06:01:05;101756.13;;;-15.13;59.95
74893;BME280;63446;56.272;43.922;2023-01-08T06:03:31;101769.41;;;-15.08;60.06
74893;BME280;63446;56.272;43.922;2023-01-08T06:06:00;101769.25;;;-15.05;59.95
74893;BME280;63446;56.272;43.922;2023-01-08T06:08:27;101769.13;;;-15.02;60.12
74893;BME280;63446;56.272;43.922;2023-01-08T06:10:54;101774.00;;;-14.97;60.09
74893;BME280;63446;56.272;43.922;2023-01-08T06:13:23;101783.09;;;-14.93;60.00
74893;BME280;63446;56.272;43.922;2023-01-08T06:15:48;101774.59;;;-14.92;59.96
74893;BME280;63446;56.272;43.922;2023-01-08T06:18:14;101781.03;;;-14.85;60.05
74893;BME280;63446;56.272;43.922;2023-01-08T06:20:40;101789.34;;;-14.81;60.19
74893;BME280;63446;56.272;43.922;2023-01-08T06:23:05;101784.00;;;-14.75;60.09
74893;BME280;63446;56.272;43.922;2023-01-08T06:25:33;101794.75;;;-14.70;60.17
74893;BME280;63446;56.272;43.922;2023-01-08T06:27:59;101799.69;;;-14.67;60.12
74893;BME280;63446;56.272;43.922;2023-01-08T06:30:24;101807.00;;;-14.61;60.12
74893;BME280;63446;56.272;43.922;2023-01-08T06:32:57;101807.69;;;-14.57;60.05
74893;BME280;63446;56.272;43.922;2023-01-08T06:35:23;101812.56;;;-14.52;59.96
74893;BME280;63446;56.272;43.922;2023-01-08T06:37:50;101821.88;;;-14.53;59.91
74893;BME280;63446;56.272;43.922;2023-01-08T06:40:16;101818.47;;;-14.52;59.82
74893;BME280;63446;56.272;43.922;2023-01-08T06:42:41;101817.69;;;-14.54;59.73
74893;BME280;63446;56.272;43.922;2023-01-08T06:45:09;101821.13;;;-14.55;59.63
74893;BME280;63446;56.272;43.922;2023-01-08T06:47:35;101824.63;;;-14.58;59.57
74893;BME280;63446;56.272;43.922;2023-01-08T06:50:01;101829.84;;;-14.61;59.60
74893;BME280;63446;56.272;43.922;2023-01-08T06:52:28;101828.44;;;-14.66;59.42
74893;BME280;63446;56.272;43.922;2023-01-08T06:54:55;101833.75;;;-14.72;59.36
74893;BME280;63446;56.272;43.922;2023-01-08T06:57:21;101838.38;;;-14.81;59.29
74893;BME280;63446;56.272;43.922;2023-01-08T06:59:46;101845.38;;;-14.86;59.43
74893;BME280;63446;56.272;43.922;2023-01-08T07:02:14;101845.63;;;-14.92;59.40
74893;BME280;63446;56.272;43.922;2023-01-08T07:04:41;101846.75;;;-14.97;59.21
74893;BME280;63446;56.272;43.922;2023-01-08T07:07:07;101857.22;;;-15.05;59.23
74893;BME280;63446;56.272;43.922;2023-01-08T07:09:34;101854.13;;;-15.12;59.28
74893;BME280;63446;56.272;43.922;2023-01-08T07:11:59;101855.28;;;-15.19;59.30
74893;BME280;63446;56.272;43.922;2023-01-08T07:14:26;101864.53;;;-15.18;59.28
74893;BME280;63446;56.272;43.922;2023-01-08T07:16:52;101864.47;;;-15.16;59.24
74893;BME280;63446;56.272;43.922;2023-01-08T07:19:18;101863.66;;;-15.17;59.26
74893;BME280;63446;56.272;43.922;2023-01-08T07:21:43;101876.13;;;-15.12;59.25
74893;BME280;63446;56.272;43.922;2023-01-08T07:24:09;101872.00;;;-15.15;59.13
74893;BME280;63446;56.272;43.922;2023-01-08T07:26:35;101873.59;;;-15.12;59.03
74893;BME280;63446;56.272;43.922;2023-01-08T07:29:02;101881.13;;;-15.11;58.94
74893;BME280;63446;56.272;43.922;2023-01-08T07:31:27;101881.88;;;-15.09;58.83
74893;BME280;63446;56.272;43.922;2023-01-08T07:33:53;101881.06;;;-15.09;58.84
74893;BME280;63446;56.272;43.922;2023-01-08T07:36:19;101890.31;;;-15.08;58.73
74893;BME280;63446;56.272;43.922;2023-01-08T07:38:48;101884.44;;;-15.09;58.53
74893;BME280;63446;56.272;43.922;2023-01-08T07:41:14;101890.31;;;-15.08;58.56
74893;BME280;63446;56.272;43.922;2023-01-08T07:43:41;101890.25;;;-15.07;58.65
74893;BME280;63446;56.272;43.922;2023-01-08T07:46:06;101886.84;;;-15.06;58.60
74893;BME280;63446;56.272;43.922;2023-01-08T07:48:32;101890.19;;;-15.05;58.31
74893;BME280;63446;56.272;43.922;2023-01-08T07:51:00;101885.44;;;-15.13;58.21
74893;BME280;63446;56.272;43.922;2023-01-08T07:53:27;101893.25;;;-15.17;57.97
74893;BME280;63446;56.272;43.922;2023-01-08T07:56:01;101890.47;;;-15.32;57.99
74893;BME280;63446;56.272;43.922;2023-01-08T07:58:27;101896.75;;;-15.40;58.02
74893;BME280;63446;56.272;43.922;2023-01-08T08:00:54;101904.59;;;-15.46;57.96
74893;BME280;63446;56.272;43.922;2023-01-08T08:03:21;101909.06;;;-15.52;57.86
74893;BME280;63446;56.272;43.922;2023-01-08T08:05:48;101908.22;;;-15.52;57.88
74893;BME280;63446;56.272;43.922;2023-01-08T08:08:14;101911.59;;;-15.52;58.00
74893;BME280;63446;56.272;43.922;2023-01-08T08:10:41;101909.88;;;-15.51;58.02
74893;BME280;63446;56.272;43.922;2023-01-08T08:13:08;101908.94;;;-15.48;57.89
74893;BME280;63446;56.272;43.922;2023-01-08T08:15:34;101916.38;;;-15.45;57.86
74893;BME280;63446;56.272;43.922;2023-01-08T08:18:02;101912.13;;;-15.45;57.81
74893;BME280;63446;56.272;43.922;2023-01-08T08:20:28;101920.50;;;-15.43;57.74
74893;BME280;63446;56.272;43.922;2023-01-08T08:23:02;101927.19;;;-15.40;57.62
74893;BME280;63446;56.272;43.922;2023-01-08T08:25:29;101917.19;;;-15.45;57.61
74893;BME280;63446;56.272;43.922;2023-01-08T08:27:56;101923.94;;;-15.44;57.51
74893;BME280;63446;56.272;43.922;2023-01-08T08:30:23;101928.91;;;-15.41;57.62
74893;BME280;63446;56.272;43.922;2023-01-08T08:32:49;101930.41;;;-15.37;57.63
74893;BME280;63446;56.272;43.922;2023-01-08T08:35:15;101927.72;;;-15.34;57.69
74893;BME280;63446;56.272;43.922;2023-01-08T08:37:41;101928.50;;;-15.32;57.52
74893;BME280;63446;56.272;43.922;2023-01-08T08:40:07;101931.78;;;-15.30;57.51
74893;BME280;63446;56.272;43.922;2023-01-08T08:42:33;101926.88;;;-15.33;57.58
74893;BME280;63446;56.272;43.922;2023-01-08T08:44:59;101935.09;;;-15.28;57.70
74893;BME280;63446;56.272;43.922;2023-01-08T08:47:24;101929.00;;;-15.23;57.78
74893;BME280;63446;56.272;43.922;2023-01-08T08:49:51;101933.75;;;-15.16;57.77
74893;BME280;63446;56.272;43.922;2023-01-08T08:52:17;101940.31;;;-15.10;57.67
74893;BME280;63446;56.272;43.922;2023-01-08T08:54:43;101933.31;;;-15.05;57.63
74893;BME280;63446;56.272;43.922;2023-01-08T08:57:09;101939.81;;;-14.99;57.60
74893;BME280;63446;56.272;43.922;2023-01-08T08:59:36;101938.19;;;-15.00;57.39
74893;BME280;63446;56.272;43.922;2023-01-08T09:02:03;101940.59;;;-14.97;57.40
74893;BME280;63446;56.272;43.922;2023-01-08T09:04:31;101941.63;;;-15.02;57.40
74893;BME280;63446;56.272;43.922;2023-01-08T09:06:58;101941.63;;;-15.02;57.39
74893;BME280;63446;56.272;43.922;2023-01-08T09:09:24;101942.44;;;-15.01;57.39
74893;BME280;63446;56.272;43.922;2023-01-08T09:11:51;101944.91;;;-14.99;57.54
74893;BME280;63446;56.272;43.922;2023-01-08T09:14:17;101947.38;;;-14.98;57.37
74893;BME280;63446;56.272;43.922;2023-01-08T09:16:44;101947.22;;;-14.95;57.53
74893;BME280;63446;56.272;43.922;2023-01-08T09:19:10;101946.28;;;-14.92;57.42
74893;BME280;63446;56.272;43.922;2023-01-08T09:21:36;101957.94;;;-14.88;57.51
74893;BME280;63446;56.272;43.922;2023-01-08T09:24:02;101963.03;;;-14.88;57.44
74893;BME280;63446;56.272;43.922;2023-01-08T09:26:29;101961.19;;;-14.85;57.40
74893;BME280;63446;56.272;43.922;2023-01-08T09:28:56;101966.13;;;-14.82;57.39
74893;BME280;63446;56.272;43.922;2023-01-08T09:31:24;101965.13;;;-14.78;57.62
74893;BME280;63446;56.272;43.922;2023-01-08T09:33:51;101954.75;;;-14.73;57.73
74893;BME280;63446;56.272;43.922;2023-01-08T09:36:17;101953.03;;;-14.72;57.43
74893;BME280;63446;56.272;43.922;2023-01-08T09:38:43;101953.72;;;-14.69;57.56
74893;BME280;63446;56.272;43.922;2023-01-08T09:41:17;101948.53;;;-14.66;57.53
74893;BME280;63446;56.272;43.922;2023-01-08T09:43:45;101944.97;;;-14.62;57.63
74893;BME280;63446;56.272;43.922;2023-01-08T09:46:14;101947.25;;;-14.56;57.57
74893;BME280;63446;56.272;43.922;2023-01-08T09:48:41;101947.03;;;-14.51;57.43
74893;BME280;63446;56.272;43.922;2023-01-08T09:51:11;101942.69;;;-14.49;57.63
74893;BME280;63446;56.272;43.922;2023-01-08T09:53:39;101951.22;;;-14.50;57.35
74893;BME280;63446;56.272;43.922;2023-01-08T09:56:11;101960.56;;;-14.50;57.16
74893;BME280;63446;56.272;43.922;2023-01-08T09:58:43;101953.97;;;-14.55;57.21
74893;BME280;63446;56.272;43.922;2023-01-08T10:01:14;101956.63;;;-14.58;57.20
74893;BME280;63446;56.272;43.922;2023-01-08T10:03:48;101956.84;;;-14.62;57.26
74893;BME280;63446;56.272;43.922;2023-01-08T10:06:15;101962.72;;;-14.62;57.35
74893;BME280;63446;56.272;43.922;2023-01-08T10:08:41;101962.69;;;-14.60;57.46
74893;BME280;63446;56.272;43.922;2023-01-08T10:11:09;101968.41;;;-14.57;57.42
74893;BME280;63446;56.272;43.922;2023-01-08T10:13:39;101964.94;;;-14.54;57.47
74893;BME280;63446;56.272;43.922;2023-01-08T10:16:17;101975.88;;;-14.52;57.43
74893;BME280;63446;56.272;43.922;2023-01-08T10:18:45;101969.28;;;-14.56;57.34
74893;BME280;63446;56.272;43.922;2023-01-08T10:21:13;101967.69;;;-14.59;57.44
74893;BME280;63446;56.272;43.922;2023-01-08T10:23:51;101976.38;;;-14.64;57.46
74893;BME280;63446;56.272;43.922;2023-01-08T10:26:26;101976.66;;;-14.70;57.42
74893;BME280;63446;56.272;43.922;2023-01-08T10:29:05;101987.69;;;-14.71;57.23
74893;BME280;63446;56.272;43.922;2023-01-08T10:31:31;101989.53;;;-14.75;57.36
74893;BME280;63446;56.272;43.922;2023-01-08T10:34:07;101990.63;;;-14.81;57.37
74893;BME280;63446;56.272;43.922;2023-01-08T10:36:38;101995.56;;;-14.78;57.34
74893;BME280;63446;56.272;43.922;2023-01-08T10:39:05;101987.19;;;-14.80;57.43
74893;BME280;63446;56.272;43.922;2023-01-08T10:41:36;101992.25;;;-14.80;57.55
74893;BME280;63446;56.272;43.922;2023-01-08T10:44:06;101991.31;;;-14.77;57.49
74893;BME280;63446;56.272;43.922;2023-01-08T10:46:41;102005.63;;;-14.76;57.45
74893;BME280;63446;56.272;43.922;2023-01-08T10:51:52;102009.69;;;-14.72;57.61
74893;BME280;63446;56.272;43.922;2023-01-08T10:54:28;102008.88;;;-14.72;57.45
74893;BME280;63446;56.272;43.922;2023-01-08T10:56:55;102008.94;;;-14.74;57.41
74893;BME280;63446;56.272;43.922;2023-01-08T10:59:22;102006.50;;;-14.75;57.38
74893;BME280;63446;56.272;43.922;2023-01-08T11:01:50;102007.56;;;-14.81;57.44
74893;BME280;63446;56.272;43.922;2023-01-08T11:04:28;102009.41;;;-14.85;57.49
74893;BME280;63446;56.272;43.922;2023-01-08T11:06:59;102017.13;;;-14.88;57.40
74893;BME280;63446;56.272;43.922;2023-01-08T11:09:32;102011.44;;;-14.93;57.48
74893;BME280;63446;56.272;43.922;2023-01-08T11:11:59;102019.25;;;-14.97;57.30
74893;BME280;63446;56.272;43.922;2023-01-08T11:14:29;102015.09;;;-15.00;57.47
74893;BME280;63446;56.272;43.922;2023-01-08T11:16:56;102019.47;;;-15.04;57.44
74893;BME280;63446;56.272;43.922;2023-01-08T11:19:28;102032.25;;;-15.05;57.47
74893;BME280;63446;56.272;43.922;2023-01-08T11:22:05;102031.53;;;-15.09;57.32
74893;BME280;63446;56.272;43.922;2023-01-08T11:24:36;102030.00;;;-15.13;57.37
74893;BME280;63446;56.272;43.922;2023-01-08T11:27:12;102041.88;;;-15.13;57.48
74893;BME280;63446;56.272;43.922;2023-01-08T11:32:20;102052.25;;;-15.19;57.61
74893;BME280;63446;56.272;43.922;2023-01-08T11:37:26;102060.94;;;-15.25;57.42
74893;BME280;63446;56.272;43.922;2023-01-08T11:39:54;102053.56;;;-15.31;57.41
74893;BME280;63446;56.272;43.922;2023-01-08T11:53:45;102066.84;;;-15.46;57.59
74893;BME280;63446;56.272;43.922;2023-01-08T12:04:23;102081.22;;;-15.69;57.57
74893;BME280;63446;56.272;43.922;2023-01-08T12:09:43;102098.53;;;-15.80;57.59
74893;BME280;63446;56.272;43.922;2023-01-08T12:15:10;102104.97;;;-15.95;57.68
74893;BME280;63446;56.272;43.922;2023-01-08T12:20:35;102119.78;;;-16.08;57.66
74893;BME280;63446;56.272;43.922;2023-01-08T12:23:14;102122.56;;;-16.14;57.64
74893;BME280;63446;56.272;43.922;2023-01-08T12:33:44;102139.38;;;-16.38;57.83
74893;BME280;63446;56.272;43.922;2023-01-08T12:36:29;102137.84;;;-16.42;57.67
74893;BME280;63446;56.272;43.922;2023-01-08T12:39:03;102142.16;;;-16.45;57.85
74893;BME280;63446;56.272;43.922;2023-01-08T12:41:33;102135.66;;;-16.53;57.92
74893;BME280;63446;56.272;43.922;2023-01-08T12:44:02;102148.38;;;-16.54;57.75
74893;BME280;63446;56.272;43.922;2023-01-08T12:46:32;102148.53;;;-16.59;57.95
74893;BME280;63446;56.272;43.922;2023-01-08T12:49:01;102154.66;;;-16.66;58.00
74893;BME280;63446;56.272;43.922;2023-01-08T12:51:59;102161.53;;;-16.69;58.04
74893;BME280;63446;56.272;43.922;2023-01-08T12:54:52;102163.44;;;-16.76;57.99
74893;BME280;63446;56.272;43.922;2023-01-08T12:57:44;102162.84;;;-16.84;58.01
74893;BME280;63446;56.272;43.922;2023-01-08T13:00:24;102167.28;;;-16.91;57.99
74893;BME280;63446;56.272;43.922;2023-01-08T13:03:02;102172.53;;;-16.97;58.04
74893;BME280;63446;56.272;43.922;2023-01-08T13:05:36;102174.38;;;-17.02;57.99
74893;BME280;63446;56.272;43.922;2023-01-08T13:08:06;102167.84;;;-17.09;58.03
74893;BME280;63446;56.272;43.922;2023-01-08T13:10:48;102172.19;;;-17.13;58.04
74893;BME280;63446;56.272;43.922;2023-01-08T13:13:31;102176.53;;;-17.18;58.14
74893;BME280;63446;56.272;43.922;2023-01-08T13:18:39;102192.84;;;-17.28;58.15
74893;BME280;63446;56.272;43.922;2023-01-08T13:21:07;102192.88;;;-17.30;58.20
74893;BME280;63446;56.272;43.922;2023-01-08T13:23:35;102193.03;;;-17.34;58.05
74893;BME280;63446;56.272;43.922;2023-01-08T13:26:03;102194.88;;;-17.39;58.22
74893;BME280;63446;56.272;43.922;2023-01-08T13:28:42;102201.56;;;-17.38;58.21
74893;BME280;63446;56.272;43.922;2023-01-08T13:33:44;102211.75;;;-17.41;58.35
74893;BME280;63446;56.272;43.922;2023-01-08T13:36:16;102215.97;;;-17.42;58.22
74893;BME280;63446;56.272;43.922;2023-01-08T13:38:43;102219.38;;;-17.43;58.24
74893;BME280;63446;56.272;43.922;2023-01-08T13:41:34;102213.53;;;-17.45;58.17
74893;BME280;63446;56.272;43.922;2023-01-08T13:44:15;102220.38;;;-17.49;58.26